Search for airport 
image banner adimage banner adimage banner ad
image banner ad

45CA - Chapin Medical Pad Heliport

Located in Corona, United States

ICAO - 45CA, IATA -

Data provided by Airmate  

General information

Coordinates: N37°20'6" W121°59'59"
Elevation is 160 feet MSL.
 
View others Airports in California

Operational data

Special qualification required
Current time UTC:
Current local time:
METAR: KSJC 210053Z 30009KT 10SM FEW010 30/06 A2989 RMK AO2 SLP121 FU FEW010 T03000056
TAF: KSJC 202321Z 2100/2124 32012KT P6SM SKC FM210400 VRB04KT P6SM FEW200 FM212100 32009KT 6SM HZ FEW200
View NOTAMs / SUP AIP / TFR affecting this airport [VIEW]
Communications frequencies: [VIEW]

Runways:

Airport contact information

Address: Corona United States

Satellite view of 45CA